sensor_id;sensor_type;location;lat;lon;timestamp;P1;durP1;ratioP1;P2;durP2;ratioP2
1214;SDS011;597;51.998;5.880;2022-10-16T00:02:11;11.67;;;4.90;;
1214;SDS011;597;51.998;5.880;2022-10-16T00:04:37;7.40;;;5.63;;
1214;SDS011;597;51.998;5.880;2022-10-16T00:07:02;6.47;;;4.47;;
1214;SDS011;597;51.998;5.880;2022-10-16T00:09:27;12.10;;;5.60;;
1214;SDS011;597;51.998;5.880;2022-10-16T00:11:52;8.10;;;4.80;;
1214;SDS011;597;51.998;5.880;2022-10-16T00:14:17;7.60;;;5.60;;
1214;SDS011;597;51.998;5.880;2022-10-16T00:16:42;7.37;;;4.90;;
1214;SDS011;597;51.998;5.880;2022-10-16T00:19:09;7.37;;;4.37;;
1214;SDS011;597;51.998;5.880;2022-10-16T00:21:34;13.60;;;5.20;;
1214;SDS011;597;51.998;5.880;2022-10-16T00:24:01;14.50;;;4.80;;
1214;SDS011;597;51.998;5.880;2022-10-16T00:26:27;6.87;;;4.80;;
1214;SDS011;597;51.998;5.880;2022-10-16T00:28:53;6.90;;;4.10;;
1214;SDS011;597;51.998;5.880;2022-10-16T00:31:19;8.70;;;4.97;;
1214;SDS011;597;51.998;5.880;2022-10-16T00:33:44;5.70;;;4.70;;
1214;SDS011;597;51.998;5.880;2022-10-16T00:36:11;9.47;;;4.60;;
1214;SDS011;597;51.998;5.880;2022-10-16T00:38:37;8.00;;;4.20;;
1214;SDS011;597;51.998;5.880;2022-10-16T00:41:02;7.83;;;5.27;;
1214;SDS011;597;51.998;5.880;2022-10-16T00:46:03;12.53;;;5.77;;
1214;SDS011;597;51.998;5.880;2022-10-16T00:48:29;8.07;;;4.60;;
1214;SDS011;597;51.998;5.880;2022-10-16T00:50:55;11.53;;;5.13;;
1214;SDS011;597;51.998;5.880;2022-10-16T00:53:21;9.93;;;4.93;;
1214;SDS011;597;51.998;5.880;2022-10-16T00:55:46;6.10;;;4.90;;
1214;SDS011;597;51.998;5.880;2022-10-16T00:58:11;7.57;;;4.70;;
1214;SDS011;597;51.998;5.880;2022-10-16T01:00:37;11.80;;;5.33;;
1214;SDS011;597;51.998;5.880;2022-10-16T01:03:03;13.83;;;5.93;;
1214;SDS011;597;51.998;5.880;2022-10-16T01:05:33;7.60;;;5.50;;
1214;SDS011;597;51.998;5.880;2022-10-16T01:13:07;9.25;;;5.72;;
1214;SDS011;597;51.998;5.880;2022-10-16T01:15:34;8.00;;;5.20;;
1214;SDS011;597;51.998;5.880;2022-10-16T01:18:11;7.83;;;5.47;;
1214;SDS011;597;51.998;5.880;2022-10-16T01:20:43;6.90;;;5.70;;
1214;SDS011;597;51.998;5.880;2022-10-16T01:23:15;10.43;;;5.60;;
1214;SDS011;597;51.998;5.880;2022-10-16T01:28:17;11.10;;;6.07;;
1214;SDS011;597;51.998;5.880;2022-10-16T01:30:44;11.93;;;5.87;;
1214;SDS011;597;51.998;5.880;2022-10-16T01:33:12;8.97;;;6.43;;
1214;SDS011;597;51.998;5.880;2022-10-16T01:35:41;12.70;;;6.33;;
1214;SDS011;597;51.998;5.880;2022-10-16T01:38:08;10.90;;;5.70;;
1214;SDS011;597;51.998;5.880;2022-10-16T01:40:36;7.43;;;5.20;;
1214;SDS011;597;51.998;5.880;2022-10-16T01:43:04;9.07;;;6.07;;
1214;SDS011;597;51.998;5.880;2022-10-16T01:45:30;6.87;;;6.03;;
1214;SDS011;597;51.998;5.880;2022-10-16T01:47:56;8.83;;;6.73;;
1214;SDS011;597;51.998;5.880;2022-10-16T01:50:22;10.90;;;5.80;;
1214;SDS011;597;51.998;5.880;2022-10-16T01:52:49;8.20;;;6.40;;
1214;SDS011;597;51.998;5.880;2022-10-16T01:55:17;7.43;;;5.47;;
1214;SDS011;597;51.998;5.880;2022-10-16T01:57:45;16.03;;;6.00;;
1214;SDS011;597;51.998;5.880;2022-10-16T02:00:12;7.87;;;5.53;;
1214;SDS011;597;51.998;5.880;2022-10-16T02:02:39;7.90;;;5.10;;
1214;SDS011;597;51.998;5.880;2022-10-16T02:05:11;10.50;;;6.23;;
1214;SDS011;597;51.998;5.880;2022-10-16T02:07:39;10.83;;;6.73;;
1214;SDS011;597;51.998;5.880;2022-10-16T02:10:07;10.20;;;6.37;;
1214;SDS011;597;51.998;5.880;2022-10-16T02:12:33;11.97;;;6.00;;
1214;SDS011;597;51.998;5.880;2022-10-16T02:14:59;8.83;;;6.10;;
1214;SDS011;597;51.998;5.880;2022-10-16T02:17:25;7.90;;;5.43;;
1214;SDS011;597;51.998;5.880;2022-10-16T02:19:50;10.03;;;5.67;;
1214;SDS011;597;51.998;5.880;2022-10-16T02:22:27;8.53;;;5.90;;
1214;SDS011;597;51.998;5.880;2022-10-16T02:24:59;7.60;;;5.60;;
1214;SDS011;597;51.998;5.880;2022-10-16T02:27:35;12.00;;;5.80;;
1214;SDS011;597;51.998;5.880;2022-10-16T02:30:24;6.20;;;4.97;;
1214;SDS011;597;51.998;5.880;2022-10-16T02:32:51;7.80;;;4.83;;
1214;SDS011;597;51.998;5.880;2022-10-16T02:35:17;6.00;;;4.87;;
1214;SDS011;597;51.998;5.880;2022-10-16T02:37:44;8.77;;;5.20;;
1214;SDS011;597;51.998;5.880;2022-10-16T02:40:10;6.87;;;5.00;;
1214;SDS011;597;51.998;5.880;2022-10-16T02:42:37;8.60;;;5.10;;
1214;SDS011;597;51.998;5.880;2022-10-16T02:45:03;7.00;;;5.00;;
1214;SDS011;597;51.998;5.880;2022-10-16T02:47:28;6.50;;;5.10;;
1214;SDS011;597;51.998;5.880;2022-10-16T02:49:53;9.97;;;5.60;;
1214;SDS011;597;51.998;5.880;2022-10-16T02:52:18;9.87;;;4.80;;
1214;SDS011;597;51.998;5.880;2022-10-16T02:54:44;8.60;;;5.63;;
1214;SDS011;597;51.998;5.880;2022-10-16T02:57:09;6.80;;;4.70;;
1214;SDS011;597;51.998;5.880;2022-10-16T02:59:34;6.80;;;4.93;;
1214;SDS011;597;51.998;5.880;2022-10-16T03:01:59;7.83;;;5.77;;
1214;SDS011;597;51.998;5.880;2022-10-16T03:04:24;9.80;;;5.40;;
1214;SDS011;597;51.998;5.880;2022-10-16T03:06:50;10.60;;;5.97;;
1214;SDS011;597;51.998;5.880;2022-10-16T03:09:15;8.80;;;4.83;;
1214;SDS011;597;51.998;5.880;2022-10-16T03:11:40;8.03;;;5.17;;
1214;SDS011;597;51.998;5.880;2022-10-16T03:14:05;5.43;;;4.90;;
1214;SDS011;597;51.998;5.880;2022-10-16T03:16:30;5.80;;;5.10;;
1214;SDS011;597;51.998;5.880;2022-10-16T03:18:56;15.03;;;5.77;;
1214;SDS011;597;51.998;5.880;2022-10-16T03:21:21;5.43;;;4.43;;
1214;SDS011;597;51.998;5.880;2022-10-16T03:23:46;10.00;;;5.03;;
1214;SDS011;597;51.998;5.880;2022-10-16T03:26:11;5.37;;;4.40;;
1214;SDS011;597;51.998;5.880;2022-10-16T03:28:36;6.50;;;5.30;;
1214;SDS011;597;51.998;5.880;2022-10-16T03:31:02;6.17;;;4.50;;
1214;SDS011;597;51.998;5.880;2022-10-16T03:33:27;8.50;;;4.10;;
1214;SDS011;597;51.998;5.880;2022-10-16T03:35:52;8.87;;;5.20;;
1214;SDS011;597;51.998;5.880;2022-10-16T03:38:18;13.00;;;5.30;;
1214;SDS011;597;51.998;5.880;2022-10-16T03:40:43;7.93;;;5.00;;
1214;SDS011;597;51.998;5.880;2022-10-16T03:43:09;9.10;;;4.93;;
1214;SDS011;597;51.998;5.880;2022-10-16T03:45:34;7.40;;;4.80;;
1214;SDS011;597;51.998;5.880;2022-10-16T03:47:59;8.93;;;5.03;;
1214;SDS011;597;51.998;5.880;2022-10-16T03:50:24;8.17;;;4.80;;
1214;SDS011;597;51.998;5.880;2022-10-16T03:52:50;6.00;;;4.60;;
1214;SDS011;597;51.998;5.880;2022-10-16T03:55:15;6.60;;;5.00;;
1214;SDS011;597;51.998;5.880;2022-10-16T03:57:40;7.20;;;5.13;;
1214;SDS011;597;51.998;5.880;2022-10-16T04:00:06;8.90;;;5.20;;
1214;SDS011;597;51.998;5.880;2022-10-16T04:02:31;13.63;;;4.90;;
1214;SDS011;597;51.998;5.880;2022-10-16T04:04:56;7.30;;;4.50;;
1214;SDS011;597;51.998;5.880;2022-10-16T04:07:21;8.13;;;4.93;;
1214;SDS011;597;51.998;5.880;2022-10-16T04:09:46;6.33;;;4.90;;
1214;SDS011;597;51.998;5.880;2022-10-16T04:12:12;7.00;;;4.70;;
1214;SDS011;597;51.998;5.880;2022-10-16T04:14:37;7.23;;;5.20;;
1214;SDS011;597;51.998;5.880;2022-10-16T04:17:02;7.70;;;5.33;;
1214;SDS011;597;51.998;5.880;2022-10-16T04:19:27;5.40;;;4.40;;
1214;SDS011;597;51.998;5.880;2022-10-16T04:21:52;6.53;;;4.57;;
1214;SDS011;597;51.998;5.880;2022-10-16T04:24:17;9.03;;;4.20;;
1214;SDS011;597;51.998;5.880;2022-10-16T04:26:43;6.30;;;4.10;;
1214;SDS011;597;51.998;5.880;2022-10-16T04:29:08;5.17;;;4.67;;
1214;SDS011;597;51.998;5.880;2022-10-16T04:31:33;5.93;;;3.80;;
1214;SDS011;597;51.998;5.880;2022-10-16T04:33:58;6.73;;;3.77;;
1214;SDS011;597;51.998;5.880;2022-10-16T04:36:23;4.20;;;3.60;;
1214;SDS011;597;51.998;5.880;2022-10-16T04:38:49;7.13;;;4.77;;
1214;SDS011;597;51.998;5.880;2022-10-16T04:41:14;6.67;;;4.40;;
1214;SDS011;597;51.998;5.880;2022-10-16T04:43:39;7.53;;;5.47;;
1214;SDS011;597;51.998;5.880;2022-10-16T04:46:04;7.63;;;4.80;;
1214;SDS011;597;51.998;5.880;2022-10-16T04:48:30;6.87;;;5.07;;
1214;SDS011;597;51.998;5.880;2022-10-16T04:50:55;9.93;;;5.07;;
1214;SDS011;597;51.998;5.880;2022-10-16T04:53:20;6.43;;;5.20;;
1214;SDS011;597;51.998;5.880;2022-10-16T04:55:46;7.33;;;4.37;;
1214;SDS011;597;51.998;5.880;2022-10-16T04:58:11;6.17;;;4.53;;
1214;SDS011;597;51.998;5.880;2022-10-16T05:00:36;6.53;;;5.10;;
1214;SDS011;597;51.998;5.880;2022-10-16T05:03:03;7.83;;;4.23;;
1214;SDS011;597;51.998;5.880;2022-10-16T05:05:32;7.30;;;4.80;;
1214;SDS011;597;51.998;5.880;2022-10-16T05:07:57;7.03;;;5.10;;
1214;SDS011;597;51.998;5.880;2022-10-16T05:10:22;5.67;;;4.00;;
1214;SDS011;597;51.998;5.880;2022-10-16T05:12:47;5.47;;;4.53;;
1214;SDS011;597;51.998;5.880;2022-10-16T05:15:13;8.63;;;4.63;;
1214;SDS011;597;51.998;5.880;2022-10-16T05:17:38;9.37;;;4.63;;
1214;SDS011;597;51.998;5.880;2022-10-16T05:20:03;5.53;;;4.33;;
1214;SDS011;597;51.998;5.880;2022-10-16T05:22:29;9.77;;;4.30;;
1214;SDS011;597;51.998;5.880;2022-10-16T05:24:54;4.70;;;4.27;;
1214;SDS011;597;51.998;5.880;2022-10-16T05:27:19;6.17;;;4.33;;
1214;SDS011;597;51.998;5.880;2022-10-16T05:29:48;7.53;;;4.80;;
1214;SDS011;597;51.998;5.880;2022-10-16T05:32:14;7.40;;;4.73;;
1214;SDS011;597;51.998;5.880;2022-10-16T05:34:39;8.33;;;4.63;;
1214;SDS011;597;51.998;5.880;2022-10-16T05:37:05;7.13;;;4.50;;
1214;SDS011;597;51.998;5.880;2022-10-16T05:39:30;10.27;;;4.60;;
1214;SDS011;597;51.998;5.880;2022-10-16T05:41:55;5.27;;;4.57;;
1214;SDS011;597;51.998;5.880;2022-10-16T05:44:20;8.20;;;4.63;;
1214;SDS011;597;51.998;5.880;2022-10-16T05:46:46;6.60;;;5.13;;
1214;SDS011;597;51.998;5.880;2022-10-16T05:49:11;6.87;;;4.70;;
1214;SDS011;597;51.998;5.880;2022-10-16T05:51:36;6.03;;;4.60;;
1214;SDS011;597;51.998;5.880;2022-10-16T05:54:01;6.30;;;4.70;;
1214;SDS011;597;51.998;5.880;2022-10-16T05:56:26;7.60;;;5.30;;
1214;SDS011;597;51.998;5.880;2022-10-16T05:58:52;5.73;;;4.77;;
1214;SDS011;597;51.998;5.880;2022-10-16T06:01:17;8.47;;;5.53;;
1214;SDS011;597;51.998;5.880;2022-10-16T06:03:43;5.93;;;4.77;;
1214;SDS011;597;51.998;5.880;2022-10-16T06:08:34;6.57;;;5.33;;
1214;SDS011;597;51.998;5.880;2022-10-16T06:11:00;9.00;;;6.03;;
1214;SDS011;597;51.998;5.880;2022-10-16T06:13:25;6.87;;;5.50;;
1214;SDS011;597;51.998;5.880;2022-10-16T06:15:50;6.00;;;5.40;;
1214;SDS011;597;51.998;5.880;2022-10-16T06:18:16;6.47;;;5.37;;
1214;SDS011;597;51.998;5.880;2022-10-16T06:20:41;11.00;;;5.60;;
1214;SDS011;597;51.998;5.880;2022-10-16T06:23:06;6.10;;;5.17;;
1214;SDS011;597;51.998;5.880;2022-10-16T06:25:31;10.20;;;6.00;;
1214;SDS011;597;51.998;5.880;2022-10-16T06:27:56;12.03;;;6.33;;
1214;SDS011;597;51.998;5.880;2022-10-16T06:30:22;11.03;;;5.63;;
1214;SDS011;597;51.998;5.880;2022-10-16T06:32:47;6.97;;;5.50;;
1214;SDS011;597;51.998;5.880;2022-10-16T06:35:12;8.33;;;5.80;;
1214;SDS011;597;51.998;5.880;2022-10-16T06:37:37;9.70;;;5.13;;
1214;SDS011;597;51.998;5.880;2022-10-16T06:40:02;6.10;;;5.13;;
1214;SDS011;597;51.998;5.880;2022-10-16T06:42:29;7.17;;;5.70;;
1214;SDS011;597;51.998;5.880;2022-10-16T06:44:54;9.73;;;5.97;;
1214;SDS011;597;51.998;5.880;2022-10-16T06:47:20;8.37;;;6.00;;
1214;SDS011;597;51.998;5.880;2022-10-16T06:49:45;8.17;;;4.70;;
1214;SDS011;597;51.998;5.880;2022-10-16T06:52:10;8.37;;;5.40;;
1214;SDS011;597;51.998;5.880;2022-10-16T06:54:35;9.33;;;6.57;;
1214;SDS011;597;51.998;5.880;2022-10-16T06:57:00;7.87;;;5.00;;
1214;SDS011;597;51.998;5.880;2022-10-16T06:59:26;6.50;;;5.30;;
1214;SDS011;597;51.998;5.880;2022-10-16T07:01:52;5.50;;;4.60;;
1214;SDS011;597;51.998;5.880;2022-10-16T07:04:17;6.23;;;5.00;;
1214;SDS011;597;51.998;5.880;2022-10-16T07:06:42;8.53;;;4.63;;
1214;SDS011;597;51.998;5.880;2022-10-16T07:09:09;19.77;;;5.07;;
1214;SDS011;597;51.998;5.880;2022-10-16T07:11:34;6.43;;;5.07;;
1214;SDS011;597;51.998;5.880;2022-10-16T07:14:01;7.20;;;4.97;;
1214;SDS011;597;51.998;5.880;2022-10-16T07:16:27;8.17;;;5.00;;
1214;SDS011;597;51.998;5.880;2022-10-16T07:18:56;4.90;;;4.40;;
1214;SDS011;597;51.998;5.880;2022-10-16T07:21:32;9.50;;;4.63;;
1214;SDS011;597;51.998;5.880;2022-10-16T07:24:00;14.77;;;5.40;;
1214;SDS011;597;51.998;5.880;2022-10-16T07:26:30;10.20;;;4.87;;
1214;SDS011;597;51.998;5.880;2022-10-16T07:28:56;11.33;;;6.30;;
1214;SDS011;597;51.998;5.880;2022-10-16T07:31:22;7.73;;;4.80;;
1214;SDS011;597;51.998;5.880;2022-10-16T07:33:47;12.97;;;6.80;;
1214;SDS011;597;51.998;5.880;2022-10-16T07:36:13;7.30;;;4.67;;
1214;SDS011;597;51.998;5.880;2022-10-16T07:38:39;8.93;;;5.30;;
1214;SDS011;597;51.998;5.880;2022-10-16T07:41:05;7.10;;;5.13;;
1214;SDS011;597;51.998;5.880;2022-10-16T07:43:31;10.00;;;4.33;;
1214;SDS011;597;51.998;5.880;2022-10-16T07:45:56;7.97;;;4.20;;
1214;SDS011;597;51.998;5.880;2022-10-16T07:48:22;13.53;;;5.23;;
1214;SDS011;597;51.998;5.880;2022-10-16T07:50:48;6.83;;;4.77;;
1214;SDS011;597;51.998;5.880;2022-10-16T07:53:13;8.73;;;4.57;;
1214;SDS011;597;51.998;5.880;2022-10-16T07:55:38;5.43;;;4.53;;
1214;SDS011;597;51.998;5.880;2022-10-16T07:58:04;8.47;;;5.37;;
1214;SDS011;597;51.998;5.880;2022-10-16T08:00:29;7.93;;;4.70;;
1214;SDS011;597;51.998;5.880;2022-10-16T08:02:54;10.33;;;4.83;;
1214;SDS011;597;51.998;5.880;2022-10-16T08:05:19;8.03;;;4.97;;
1214;SDS011;597;51.998;5.880;2022-10-16T08:07:48;5.50;;;4.23;;
1214;SDS011;597;51.998;5.880;2022-10-16T08:10:16;9.63;;;4.20;;
1214;SDS011;597;51.998;5.880;2022-10-16T08:12:41;7.93;;;5.20;;
1214;SDS011;597;51.998;5.880;2022-10-16T08:15:06;7.40;;;5.03;;
1214;SDS011;597;51.998;5.880;2022-10-16T08:17:32;5.07;;;3.70;;
1214;SDS011;597;51.998;5.880;2022-10-16T08:19:57;5.40;;;3.70;;
1214;SDS011;597;51.998;5.880;2022-10-16T08:22:22;11.77;;;4.87;;
1214;SDS011;597;51.998;5.880;2022-10-16T08:24:47;10.17;;;5.40;;
1214;SDS011;597;51.998;5.880;2022-10-16T08:27:13;8.80;;;4.20;;
1214;SDS011;597;51.998;5.880;2022-10-16T08:29:38;12.33;;;8.97;;
1214;SDS011;597;51.998;5.880;2022-10-16T08:32:03;14.80;;;4.80;;
1214;SDS011;597;51.998;5.880;2022-10-16T08:34:28;4.27;;;3.57;;
1214;SDS011;597;51.998;5.880;2022-10-16T08:36:54;8.00;;;4.20;;
1214;SDS011;597;51.998;5.880;2022-10-16T08:39:20;24.03;;;13.03;;
1214;SDS011;597;51.998;5.880;2022-10-16T08:41:58;18.70;;;10.20;;
1214;SDS011;597;51.998;5.880;2022-10-16T08:44:39;16.57;;;7.40;;
1214;SDS011;597;51.998;5.880;2022-10-16T08:47:25;6.37;;;4.20;;
1214;SDS011;597;51.998;5.880;2022-10-16T08:49:58;6.00;;;3.57;;
1214;SDS011;597;51.998;5.880;2022-10-16T08:52:25;7.80;;;3.87;;
1214;SDS011;597;51.998;5.880;2022-10-16T08:54:53;10.50;;;4.20;;
1214;SDS011;597;51.998;5.880;2022-10-16T08:57:19;3.30;;;2.97;;
1214;SDS011;597;51.998;5.880;2022-10-16T08:59:45;7.60;;;3.73;;
1214;SDS011;597;51.998;5.880;2022-10-16T09:07:32;5.27;;;3.60;;
1214;SDS011;597;51.998;5.880;2022-10-16T09:17:40;7.93;;;3.10;;
1214;SDS011;597;51.998;5.880;2022-10-16T09:20:13;7.73;;;2.90;;
1214;SDS011;597;51.998;5.880;2022-10-16T09:22:42;5.70;;;2.80;;
1214;SDS011;597;51.998;5.880;2022-10-16T09:25:12;12.60;;;2.87;;
1214;SDS011;597;51.998;5.880;2022-10-16T09:27:38;9.03;;;3.33;;
1214;SDS011;597;51.998;5.880;2022-10-16T09:30:13;8.23;;;3.03;;
1214;SDS011;597;51.998;5.880;2022-10-16T09:32:39;6.23;;;2.90;;
1214;SDS011;597;51.998;5.880;2022-10-16T09:35:09;8.40;;;3.53;;
1214;SDS011;597;51.998;5.880;2022-10-16T09:37:36;8.97;;;3.23;;
1214;SDS011;597;51.998;5.880;2022-10-16T09:40:01;5.63;;;3.40;;
1214;SDS011;597;51.998;5.880;2022-10-16T09:42:31;3.27;;;2.33;;
1214;SDS011;597;51.998;5.880;2022-10-16T09:44:57;6.87;;;3.10;;
1214;SDS011;597;51.998;5.880;2022-10-16T09:47:23;6.90;;;3.07;;
1214;SDS011;597;51.998;5.880;2022-10-16T09:49:50;7.50;;;3.23;;
1214;SDS011;597;51.998;5.880;2022-10-16T09:52:15;4.77;;;2.97;;
1214;SDS011;597;51.998;5.880;2022-10-16T09:54:55;14.00;;;3.30;;
1214;SDS011;597;51.998;5.880;2022-10-16T09:57:20;5.23;;;3.00;;
1214;SDS011;597;51.998;5.880;2022-10-16T09:59:47;7.10;;;3.43;;
1214;SDS011;597;51.998;5.880;2022-10-16T10:02:13;8.17;;;3.80;;
1214;SDS011;597;51.998;5.880;2022-10-16T10:04:48;8.43;;;3.40;;
1214;SDS011;597;51.998;5.880;2022-10-16T10:07:18;7.90;;;3.80;;
1214;SDS011;597;51.998;5.880;2022-10-16T10:09:44;11.57;;;3.60;;
1214;SDS011;597;51.998;5.880;2022-10-16T10:12:17;7.07;;;3.13;;
1214;SDS011;597;51.998;5.880;2022-10-16T10:14:52;7.03;;;2.93;;
1214;SDS011;597;51.998;5.880;2022-10-16T10:17:19;14.60;;;3.37;;
1214;SDS011;597;51.998;5.880;2022-10-16T10:19:55;14.00;;;4.13;;
1214;SDS011;597;51.998;5.880;2022-10-16T10:24:56;7.07;;;3.63;;
1214;SDS011;597;51.998;5.880;2022-10-16T10:27:24;12.63;;;3.53;;
1214;SDS011;597;51.998;5.880;2022-10-16T10:29:53;8.60;;;2.83;;
1214;SDS011;597;51.998;5.880;2022-10-16T10:37:46;10.90;;;3.33;;
1214;SDS011;597;51.998;5.880;2022-10-16T10:40:23;16.17;;;4.30;;
1214;SDS011;597;51.998;5.880;2022-10-16T10:43:09;11.80;;;2.97;;
1214;SDS011;597;51.998;5.880;2022-10-16T10:45:47;8.23;;;3.13;;
1214;SDS011;597;51.998;5.880;2022-10-16T10:48:40;5.87;;;3.03;;
1214;SDS011;597;51.998;5.880;2022-10-16T10:51:10;8.83;;;3.50;;
1214;SDS011;597;51.998;5.880;2022-10-16T10:53:41;14.87;;;3.03;;
1214;SDS011;597;51.998;5.880;2022-10-16T10:56:14;11.70;;;3.70;;
1214;SDS011;597;51.998;5.880;2022-10-16T11:06:48;15.07;;;3.07;;
1214;SDS011;597;51.998;5.880;2022-10-16T11:11:56;13.07;;;3.57;;
1214;SDS011;597;51.998;5.880;2022-10-16T11:17:31;13.77;;;3.83;;
1214;SDS011;597;51.998;5.880;2022-10-16T11:19:48;10.60;;;3.23;;
1214;SDS011;597;51.998;5.880;2022-10-16T11:24:53;11.43;;;3.87;;
1214;SDS011;597;51.998;5.880;2022-10-16T11:27:22;11.00;;;3.20;;
1214;SDS011;597;51.998;5.880;2022-10-16T11:29:58;10.73;;;3.00;;
1214;SDS011;597;51.998;5.880;2022-10-16T11:32:28;7.93;;;2.87;;
1214;SDS011;597;51.998;5.880;2022-10-16T11:34:57;8.03;;;3.00;;
1214;SDS011;597;51.998;5.880;2022-10-16T11:37:26;15.50;;;2.93;;
1214;SDS011;597;51.998;5.880;2022-10-16T11:39:54;9.00;;;3.03;;
1214;SDS011;597;51.998;5.880;2022-10-16T11:42:37;14.30;;;3.40;;
1214;SDS011;597;51.998;5.880;2022-10-16T11:47:47;16.87;;;3.37;;
1214;SDS011;597;51.998;5.880;2022-10-16T11:55:23;10.23;;;2.87;;
1214;SDS011;597;51.998;5.880;2022-10-16T11:57:50;17.87;;;3.13;;
1214;SDS011;597;51.998;5.880;2022-10-16T12:00:24;18.33;;;3.60;;
1214;SDS011;597;51.998;5.880;2022-10-16T12:08:17;8.67;;;3.00;;
1214;SDS011;597;51.998;5.880;2022-10-16T12:10:44;7.10;;;2.90;;
1214;SDS011;597;51.998;5.880;2022-10-16T12:16:04;9.87;;;3.00;;
1214;SDS011;597;51.998;5.880;2022-10-16T12:18:30;10.30;;;2.73;;
1214;SDS011;597;51.998;5.880;2022-10-16T12:20:56;6.43;;;2.70;;
1214;SDS011;597;51.998;5.880;2022-10-16T12:23:29;10.37;;;2.50;;
1214;SDS011;597;51.998;5.880;2022-10-16T12:25:55;14.40;;;3.27;;
1214;SDS011;597;51.998;5.880;2022-10-16T12:28:21;12.90;;;3.43;;
1214;SDS011;597;51.998;5.880;2022-10-16T12:31:21;8.60;;;3.17;;
1214;SDS011;597;51.998;5.880;2022-10-16T12:33:40;12.13;;;2.80;;
1214;SDS011;597;51.998;5.880;2022-10-16T12:36:16;8.90;;;2.70;;
1214;SDS011;597;51.998;5.880;2022-10-16T12:38:51;13.57;;;3.20;;
1214;SDS011;597;51.998;5.880;2022-10-16T12:41:33;12.13;;;3.37;;
1214;SDS011;597;51.998;5.880;2022-10-16T12:43:59;15.20;;;2.70;;
1214;SDS011;597;51.998;5.880;2022-10-16T12:48:53;14.35;;;2.67;;
1214;SDS011;597;51.998;5.880;2022-10-16T12:53:58;6.18;;;2.50;;
1214;SDS011;597;51.998;5.880;2022-10-16T12:56:24;7.33;;;3.10;;
1214;SDS011;597;51.998;5.880;2022-10-16T13:01:25;14.10;;;3.67;;
1214;SDS011;597;51.998;5.880;2022-10-16T13:14:29;10.70;;;2.80;;
1214;SDS011;597;51.998;5.880;2022-10-16T13:24:47;11.50;;;2.90;;
1214;SDS011;597;51.998;5.880;2022-10-16T13:29:52;10.40;;;2.83;;
1214;SDS011;597;51.998;5.880;2022-10-16T13:32:18;13.73;;;3.97;;
1214;SDS011;597;51.998;5.880;2022-10-16T13:34:45;6.63;;;2.30;;
1214;SDS011;597;51.998;5.880;2022-10-16T13:37:17;10.67;;;2.70;;
1214;SDS011;597;51.998;5.880;2022-10-16T13:39:43;11.50;;;3.33;;
1214;SDS011;597;51.998;5.880;2022-10-16T13:44:39;13.63;;;3.03;;
1214;SDS011;597;51.998;5.880;2022-10-16T13:47:05;6.77;;;2.67;;
1214;SDS011;597;51.998;5.880;2022-10-16T13:49:30;9.13;;;3.10;;
1214;SDS011;597;51.998;5.880;2022-10-16T13:51:57;7.53;;;2.60;;
1214;SDS011;597;51.998;5.880;2022-10-16T13:54:23;16.37;;;3.63;;
1214;SDS011;597;51.998;5.880;2022-10-16T13:56:48;10.77;;;3.70;;
1214;SDS011;597;51.998;5.880;2022-10-16T13:59:24;7.73;;;2.80;;
1214;SDS011;597;51.998;5.880;2022-10-16T14:01:49;11.47;;;3.57;;
1214;SDS011;597;51.998;5.880;2022-10-16T14:04:15;12.63;;;3.40;;
1214;SDS011;597;51.998;5.880;2022-10-16T14:06:41;6.63;;;2.67;;
1214;SDS011;597;51.998;5.880;2022-10-16T14:11:32;12.30;;;3.83;;
1214;SDS011;597;51.998;5.880;2022-10-16T14:13:58;12.03;;;3.17;;
1214;SDS011;597;51.998;5.880;2022-10-16T14:16:29;12.20;;;3.50;;
1214;SDS011;597;51.998;5.880;2022-10-16T14:19:01;18.03;;;4.43;;
1214;SDS011;597;51.998;5.880;2022-10-16T14:21:27;10.83;;;3.10;;
1214;SDS011;597;51.998;5.880;2022-10-16T14:23:53;11.00;;;3.73;;
1214;SDS011;597;51.998;5.880;2022-10-16T14:26:20;10.10;;;2.83;;
1214;SDS011;597;51.998;5.880;2022-10-16T14:28:46;7.63;;;2.90;;
1214;SDS011;597;51.998;5.880;2022-10-16T14:31:29;10.10;;;3.00;;
1214;SDS011;597;51.998;5.880;2022-10-16T14:33:54;7.47;;;2.80;;
1214;SDS011;597;51.998;5.880;2022-10-16T14:36:20;8.60;;;3.73;;
1214;SDS011;597;51.998;5.880;2022-10-16T14:41:25;9.60;;;2.70;;
1214;SDS011;597;51.998;5.880;2022-10-16T14:43:51;11.10;;;3.00;;
1214;SDS011;597;51.998;5.880;2022-10-16T14:46:19;10.17;;;3.20;;
1214;SDS011;597;51.998;5.880;2022-10-16T14:48:48;8.00;;;2.90;;
1214;SDS011;597;51.998;5.880;2022-10-16T14:51:18;10.33;;;2.43;;
1214;SDS011;597;51.998;5.880;2022-10-16T14:53:44;10.20;;;3.70;;
1214;SDS011;597;51.998;5.880;2022-10-16T14:56:15;14.73;;;4.10;;
1214;SDS011;597;51.998;5.880;2022-10-16T14:58:41;11.83;;;4.10;;
1214;SDS011;597;51.998;5.880;2022-10-16T15:01:07;11.43;;;3.30;;
1214;SDS011;597;51.998;5.880;2022-10-16T15:03:33;9.77;;;3.60;;
1214;SDS011;597;51.998;5.880;2022-10-16T15:05:58;8.27;;;3.10;;
1214;SDS011;597;51.998;5.880;2022-10-16T15:08:23;9.90;;;3.90;;
1214;SDS011;597;51.998;5.880;2022-10-16T15:10:49;13.97;;;3.57;;
1214;SDS011;597;51.998;5.880;2022-10-16T15:13:14;16.00;;;3.60;;
1214;SDS011;597;51.998;5.880;2022-10-16T15:15:41;9.83;;;3.30;;
1214;SDS011;597;51.998;5.880;2022-10-16T15:18:07;10.50;;;4.00;;
1214;SDS011;597;51.998;5.880;2022-10-16T15:20:33;18.27;;;4.20;;
1214;SDS011;597;51.998;5.880;2022-10-16T15:23:00;11.93;;;5.60;;
1214;SDS011;597;51.998;5.880;2022-10-16T15:25:47;14.40;;;4.83;;
1214;SDS011;597;51.998;5.880;2022-10-16T15:28:12;12.30;;;3.40;;
1214;SDS011;597;51.998;5.880;2022-10-16T15:30:37;11.50;;;3.73;;
1214;SDS011;597;51.998;5.880;2022-10-16T15:33:03;11.23;;;3.60;;
1214;SDS011;597;51.998;5.880;2022-10-16T15:35:28;11.80;;;3.30;;
1214;SDS011;597;51.998;5.880;2022-10-16T15:37:54;8.07;;;3.30;;
1214;SDS011;597;51.998;5.880;2022-10-16T15:40:19;13.90;;;3.83;;
1214;SDS011;597;51.998;5.880;2022-10-16T15:42:45;14.63;;;5.30;;
1214;SDS011;597;51.998;5.880;2022-10-16T15:45:11;10.13;;;3.90;;
1214;SDS011;597;51.998;5.880;2022-10-16T15:47:36;11.60;;;4.70;;
1214;SDS011;597;51.998;5.880;2022-10-16T15:50:02;13.87;;;4.40;;
1214;SDS011;597;51.998;5.880;2022-10-16T15:52:27;12.57;;;5.27;;
1214;SDS011;597;51.998;5.880;2022-10-16T15:54:53;9.17;;;3.80;;
1214;SDS011;597;51.998;5.880;2022-10-16T15:57:18;13.13;;;5.20;;
1214;SDS011;597;51.998;5.880;2022-10-16T15:59:44;10.23;;;5.33;;
1214;SDS011;597;51.998;5.880;2022-10-16T16:02:09;11.60;;;4.33;;
1214;SDS011;597;51.998;5.880;2022-10-16T16:04:34;11.80;;;4.80;;
1214;SDS011;597;51.998;5.880;2022-10-16T16:07:00;18.20;;;5.53;;
1214;SDS011;597;51.998;5.880;2022-10-16T16:09:26;26.87;;;10.10;;
1214;SDS011;597;51.998;5.880;2022-10-16T16:11:51;17.73;;;7.33;;
1214;SDS011;597;51.998;5.880;2022-10-16T16:14:17;20.33;;;7.57;;
1214;SDS011;597;51.998;5.880;2022-10-16T16:16:42;20.20;;;8.83;;
1214;SDS011;597;51.998;5.880;2022-10-16T16:19:07;13.13;;;7.47;;
1214;SDS011;597;51.998;5.880;2022-10-16T16:21:34;14.90;;;7.00;;
1214;SDS011;597;51.998;5.880;2022-10-16T16:23:59;12.40;;;6.60;;
1214;SDS011;597;51.998;5.880;2022-10-16T16:26:25;11.90;;;7.30;;
1214;SDS011;597;51.998;5.880;2022-10-16T16:28:51;16.80;;;7.57;;
1214;SDS011;597;51.998;5.880;2022-10-16T16:31:17;12.83;;;7.80;;
1214;SDS011;597;51.998;5.880;2022-10-16T16:33:42;22.07;;;8.70;;
1214;SDS011;597;51.998;5.880;2022-10-16T16:36:07;14.47;;;8.00;;
1214;SDS011;597;51.998;5.880;2022-10-16T16:38:33;22.10;;;8.40;;
1214;SDS011;597;51.998;5.880;2022-10-16T16:40:58;13.03;;;8.47;;
1214;SDS011;597;51.998;5.880;2022-10-16T16:43:24;15.93;;;8.90;;
1214;SDS011;597;51.998;5.880;2022-10-16T16:45:49;14.20;;;9.57;;
1214;SDS011;597;51.998;5.880;2022-10-16T16:48:14;17.50;;;7.40;;
1214;SDS011;597;51.998;5.880;2022-10-16T16:50:39;18.70;;;8.60;;
1214;SDS011;597;51.998;5.880;2022-10-16T16:53:05;11.20;;;7.50;;
1214;SDS011;597;51.998;5.880;2022-10-16T16:55:30;16.60;;;11.13;;
1214;SDS011;597;51.998;5.880;2022-10-16T16:57:55;21.93;;;13.33;;
1214;SDS011;597;51.998;5.880;2022-10-16T17:00:21;17.43;;;11.93;;
1214;SDS011;597;51.998;5.880;2022-10-16T17:02:49;22.03;;;12.20;;
1214;SDS011;597;51.998;5.880;2022-10-16T17:05:15;14.07;;;8.83;;
1214;SDS011;597;51.998;5.880;2022-10-16T17:07:40;23.97;;;9.00;;